createdAt,value
2022-09-23T00:01:35.881Z,97557.16
2022-09-23T00:04:04.479Z,97557.02
2022-09-23T00:06:32.961Z,97553.95
2022-09-23T00:09:03.269Z,97551.42
2022-09-23T00:11:33.032Z,97552.63
2022-09-23T00:14:02.112Z,97552.05
2022-09-23T00:16:35.357Z,97545.04
2022-09-23T00:19:05.077Z,97543.02
2022-09-23T00:21:34.575Z,97546.55
2022-09-23T00:24:04.129Z,97548.72
2022-09-23T00:26:33.416Z,97545.62
2022-09-23T00:29:01.866Z,97543.45
2022-09-23T00:31:31.938Z,97546.21
2022-09-23T00:34:02.094Z,97543.39
2022-09-23T00:36:33.087Z,97541.29
2022-09-23T00:39:04.514Z,97539.20
2022-09-23T00:41:35.793Z,97533.95
2022-09-23T00:44:59.750Z,97538.48
2022-09-23T00:47:34.158Z,97539.15
2022-09-23T00:50:17.912Z,97542.09
2022-09-23T00:52:49.835Z,97540.55
2022-09-23T00:55:42.813Z,97539.25
2022-09-23T00:58:14.735Z,97536.28
2022-09-23T01:00:43.948Z,97539.70
2022-09-23T01:03:13.796Z,97541.99
2022-09-23T01:05:42.890Z,97541.95
2022-09-23T01:08:16.548Z,97541.88
2022-09-23T01:11:11.118Z,97540.55
2022-09-23T01:14:26.658Z,97545.27
2022-09-23T01:17:08.364Z,97550.24
2022-09-23T01:19:57.587Z,97549.21
2022-09-23T01:23:00.316Z,97552.29
2022-09-23T01:25:34.480Z,97556.77
2022-09-23T01:28:40.251Z,97556.92
2022-09-23T01:31:23.458Z,97557.73
2022-09-23T01:33:57.225Z,97559.55
2022-09-23T01:36:39.368Z,97558.52
2022-09-23T01:39:24.885Z,97559.21
2022-09-23T01:42:13.409Z,97558.52
2022-09-23T01:45:07.614Z,97563.11
2022-09-23T01:47:44.567Z,97562.20
2022-09-23T01:50:44.395Z,97563.44
2022-09-23T01:53:35.298Z,97560.66
2022-09-23T01:56:13.010Z,97563.41
2022-09-23T01:58:45.405Z,97563.70
2022-09-23T02:01:23.175Z,97565.59
2022-09-23T02:04:05.056Z,97564.45
2022-09-23T02:06:57.995Z,97566.97
2022-09-23T02:09:32.299Z,97568.11
2022-09-23T02:12:05.417Z,97570.23
2022-09-23T02:14:39.193Z,97571.51
2022-09-23T02:17:14.270Z,97572.23
2022-09-23T02:19:53.675Z,97572.02
2022-09-23T02:22:34.285Z,97570.11
2022-09-23T02:25:03.532Z,97570.73
2022-09-23T02:27:56.663Z,97566.22
2022-09-23T02:30:29.661Z,97567.89
2022-09-23T02:32:58.191Z,97568.94
2022-09-23T02:35:32.820Z,97567.43
2022-09-23T02:38:17.109Z,97568.40
2022-09-23T02:41:16.647Z,97572.06
2022-09-23T02:43:56.481Z,97571.25
2022-09-23T02:46:25.576Z,97573.02
2022-09-23T02:49:00.325Z,97573.36
2022-09-23T02:51:35.055Z,97572.17
2022-09-23T02:54:05.679Z,97570.55
2022-09-23T02:56:35.799Z,97572.01
2022-09-23T02:59:06.192Z,97570.80
2022-09-23T03:02:04.903Z,97571.08
2022-09-23T03:04:52.012Z,97571.90
2022-09-23T03:07:40.929Z,97570.15
2022-09-23T03:10:44.832Z,97572.52
2022-09-23T03:13:25.109Z,97573.34
2022-09-23T03:16:20.545Z,97575.38
2022-09-23T03:19:02.340Z,97574.21
2022-09-23T03:21:35.564Z,97579.11
2022-09-23T03:24:08.731Z,97576.83
2022-09-23T03:26:39.621Z,97575.09
2022-09-23T03:29:12.907Z,97576.67
2022-09-23T03:31:42.009Z,97578.79
2022-09-23T03:34:28.320Z,97575.33
2022-09-23T03:37:03.555Z,97579.07
2022-09-23T03:39:37.432Z,97577.86
2022-09-23T03:42:17.253Z,97578.00
2022-09-23T03:44:47.319Z,97577.52
2022-09-23T03:47:16.555Z,97576.77
2022-09-23T03:49:47.963Z,97577.73
2022-09-23T03:52:21.405Z,97573.48
2022-09-23T03:54:51.172Z,97574.75
2022-09-23T03:57:22.356Z,97577.77
2022-09-23T03:59:51.300Z,97575.04
2022-09-23T04:02:20.832Z,97568.27
2022-09-23T04:04:50.114Z,97569.54
2022-09-23T04:07:18.293Z,97569.27
2022-09-23T04:09:46.510Z,97564.55
2022-09-23T04:12:16.011Z,97564.64
2022-09-23T04:14:44.474Z,97565.84
2022-09-23T04:17:12.947Z,97558.88
2022-09-23T04:19:40.811Z,97561.48
2022-09-23T04:22:09.430Z,97565.67
2022-09-23T04:24:37.152Z,97567.34
2022-09-23T04:27:06.249Z,97563.59
2022-09-23T04:29:33.822Z,97558.66
2022-09-23T04:32:01.510Z,97561.03
2022-09-23T04:34:29.025Z,97559.33
2022-09-23T04:36:56.593Z,97560.63
2022-09-23T04:39:23.950Z,97563.23
2022-09-23T04:41:55.399Z,97562.00
2022-09-23T04:44:23.254Z,97562.66
2022-09-23T04:46:51.319Z,97561.77
2022-09-23T04:49:19.207Z,97569.39
2022-09-23T04:51:47.571Z,97570.34
2022-09-23T04:54:15.331Z,97570.00
2022-09-23T04:56:42.792Z,97569.59
2022-09-23T04:59:11.408Z,97568.66
2022-09-23T05:01:39.866Z,97571.23
2022-09-23T05:04:11.594Z,97574.93
2022-09-23T05:06:39.373Z,97573.39
2022-09-23T05:09:08.588Z,97572.14
2022-09-23T05:11:36.346Z,97567.08
2022-09-23T05:14:04.609Z,97566.94
2022-09-23T05:16:32.026Z,97568.36
2022-09-23T05:18:59.511Z,97569.08
2022-09-23T05:21:28.594Z,97571.62
2022-09-23T05:23:58.717Z,97575.34
2022-09-23T05:26:29.056Z,97572.40
2022-09-23T05:28:58.155Z,97572.48
2022-09-23T05:31:28.073Z,97575.59
2022-09-23T05:33:59.379Z,97577.11
2022-09-23T05:36:28.505Z,97577.05
2022-09-23T05:38:58.805Z,97583.81
2022-09-23T05:41:27.007Z,97582.39
2022-09-23T05:43:55.691Z,97586.95
2022-09-23T05:46:27.377Z,97589.39
2022-09-23T05:49:02.602Z,97588.40
2022-09-23T05:51:32.954Z,97590.34
2022-09-23T05:54:03.534Z,97592.29
2022-09-23T05:56:32.457Z,97592.20
2022-09-23T05:59:01.876Z,97593.17
2022-09-23T06:01:33.234Z,97594.14
2022-09-23T06:04:02.886Z,97595.48
2022-09-23T06:06:31.489Z,97601.19
2022-09-23T06:09:00.023Z,97605.54
2022-09-23T06:11:30.419Z,97603.08
2022-09-23T06:14:00.635Z,97606.30
2022-09-23T06:16:31.014Z,97602.30
2022-09-23T06:19:05.116Z,97602.89
2022-09-23T06:21:35.263Z,97605.23
2022-09-23T06:24:03.163Z,97609.26
2022-09-23T06:26:33.351Z,97609.00
2022-09-23T06:29:04.524Z,97610.11
2022-09-23T06:31:32.543Z,97615.83
2022-09-23T06:34:09.733Z,97615.64
2022-09-23T06:36:44.961Z,97616.60
2022-09-23T06:39:16.132Z,97611.54
2022-09-23T06:41:44.839Z,97612.09
2022-09-23T06:44:14.638Z,97610.19
2022-09-23T06:46:42.467Z,97612.52
2022-09-23T06:49:11.999Z,97618.27
2022-09-23T06:51:39.994Z,97617.39
2022-09-23T06:54:07.822Z,97618.97
2022-09-23T06:56:39.066Z,97613.96
2022-09-23T06:59:10.949Z,97619.68
2022-09-23T07:01:38.633Z,97622.36
2022-09-23T07:04:07.955Z,97623.69
2022-09-23T07:06:36.922Z,97624.02
2022-09-23T07:09:09.541Z,97626.15
2022-09-23T07:11:44.060Z,97628.09
2022-09-23T07:14:14.825Z,97629.02
2022-09-23T07:16:42.351Z,97627.66
2022-09-23T07:19:10.260Z,97628.35
2022-09-23T07:21:37.815Z,97626.20
2022-09-23T07:24:05.689Z,97625.66
2022-09-23T07:26:34.261Z,97628.14
2022-09-23T07:29:07.807Z,97629.20
2022-09-23T07:31:39.723Z,97630.05
2022-09-23T07:34:11.107Z,97632.95
2022-09-23T07:36:40.388Z,97633.03
2022-09-23T07:39:12.028Z,97633.87
2022-09-23T07:41:41.662Z,97636.27
2022-09-23T07:44:11.338Z,97637.36
2022-09-23T07:46:39.546Z,97639.84
2022-09-23T07:49:10.840Z,97640.14
2022-09-23T07:51:40.160Z,97637.49
2022-09-23T07:54:10.634Z,97643.33
2022-09-23T07:56:39.877Z,97642.59
2022-09-23T07:59:11.001Z,97644.42
2022-09-23T08:01:52.802Z,97643.73
2022-09-23T08:04:27.746Z,97641.73
2022-09-23T08:07:02.812Z,97639.15
2022-09-23T08:09:41.279Z,97638.07
2022-09-23T08:12:16.353Z,97638.18
2022-09-23T08:14:48.271Z,97638.00
2022-09-23T08:17:19.190Z,97635.57
2022-09-23T08:19:46.765Z,97629.10
2022-09-23T08:22:18.466Z,97631.83
2022-09-23T08:25:17.334Z,97630.91
2022-09-23T08:28:04.928Z,97629.27
2022-09-23T08:30:40.860Z,97633.59
2022-09-23T08:33:23.079Z,97635.79
2022-09-23T08:36:00.619Z,97632.63
2022-09-23T08:38:32.109Z,97635.10
2022-09-23T08:41:08.584Z,97633.25
2022-09-23T08:43:59.707Z,97633.30
2022-09-23T08:46:38.954Z,97633.95
2022-09-23T08:49:19.293Z,97630.86
2022-09-23T08:51:51.205Z,97626.84
2022-09-23T08:54:18.468Z,97623.91
2022-09-23T08:56:53.859Z,97621.54
2022-09-23T08:59:45.718Z,97618.41
2022-09-23T09:02:22.480Z,97618.06
2022-09-23T09:04:54.218Z,97613.84
2022-09-23T09:07:37.472Z,97615.48
2022-09-23T09:10:11.202Z,97614.20
2022-09-23T09:12:47.741Z,97611.92
2022-09-23T09:15:24.791Z,97613.83
2022-09-23T09:18:16.642Z,97610.83
2022-09-23T09:20:59.944Z,97609.19
2022-09-23T09:23:40.605Z,97606.54
2022-09-23T09:26:20.407Z,97608.06
2022-09-23T09:28:51.866Z,97605.24
2022-09-23T09:31:30.773Z,97602.89
2022-09-23T09:34:37.060Z,97601.29
2022-09-23T09:37:26.001Z,97600.95
2022-09-23T09:39:54.164Z,97602.65
2022-09-23T09:42:42.775Z,97602.42
2022-09-23T09:45:15.591Z,97598.50
2022-09-23T09:48:16.992Z,97595.98
2022-09-23T09:50:53.461Z,97593.79
2022-09-23T09:53:25.889Z,97598.73
2022-09-23T09:56:06.315Z,97599.48
2022-09-23T09:59:11.324Z,97598.42
2022-09-23T10:01:47.553Z,97596.73
2022-09-23T10:04:33.466Z,97598.58
2022-09-23T10:07:15.310Z,97587.94
2022-09-23T10:09:53.891Z,97586.02
2022-09-23T10:12:33.762Z,97588.88
2022-09-23T10:15:25.609Z,97588.13
2022-09-23T10:17:54.805Z,97584.35
2022-09-23T10:20:24.425Z,97580.51
2022-09-23T10:23:11.002Z,97577.83
2022-09-23T10:25:42.971Z,97579.16
2022-09-23T10:28:53.318Z,97584.63
2022-09-23T10:31:28.718Z,97586.57
2022-09-23T10:34:21.470Z,97586.86
2022-09-23T10:37:09.095Z,97578.94
2022-09-23T10:40:00.917Z,97572.63
2022-09-23T10:43:11.553Z,97566.50
2022-09-23T10:46:10.344Z,97562.19
2022-09-23T10:49:12.225Z,97557.52
2022-09-23T10:51:48.585Z,97555.09
2022-09-23T10:54:28.597Z,97552.59
2022-09-23T10:57:27.198Z,97554.97
2022-09-23T11:00:03.003Z,97550.81
2022-09-23T11:03:06.535Z,97549.45
2022-09-23T11:06:00.365Z,97543.20
2022-09-23T11:09:01.917Z,97544.66
2022-09-23T11:11:56.757Z,97548.77
2022-09-23T11:14:46.918Z,97546.31
2022-09-23T11:17:22.870Z,97542.77
2022-09-23T11:20:03.089Z,97539.88
2022-09-23T11:22:37.575Z,97536.55
2022-09-23T11:25:27.122Z,97537.52
2022-09-23T11:28:07.119Z,97535.61
2022-09-23T11:30:47.381Z,97534.86
2022-09-23T11:33:45.327Z,97535.55
2022-09-23T11:36:46.683Z,97534.65
2022-09-23T11:39:20.353Z,97532.13
2022-09-23T11:41:52.530Z,97522.75
2022-09-23T11:44:30.638Z,97513.44
2022-09-23T11:47:05.771Z,97510.85
2022-09-23T11:49:44.810Z,97510.52
2022-09-23T11:52:24.248Z,97503.71
2022-09-23T11:55:22.995Z,97507.75
2022-09-23T11:58:26.062Z,97508.38
2022-09-23T12:01:01.559Z,97512.54
2022-09-23T12:03:55.186Z,97519.24
2022-09-23T12:06:32.229Z,97510.20
2022-09-23T12:09:27.160Z,97501.50
2022-09-23T12:12:14.161Z,97502.70
2022-09-23T12:14:58.995Z,97497.77
2022-09-23T12:17:27.269Z,97494.42
2022-09-23T12:20:24.015Z,97492.80
2022-09-23T12:23:22.573Z,97495.23
2022-09-23T12:26:02.668Z,97495.06
2022-09-23T12:28:41.080Z,97490.75
2022-09-23T12:31:13.471Z,97490.80
2022-09-23T12:33:49.195Z,97485.74
2022-09-23T12:36:27.053Z,97488.05
2022-09-23T12:39:05.379Z,97487.27
2022-09-23T12:41:41.409Z,97484.92
2022-09-23T12:44:16.017Z,97483.89
2022-09-23T12:46:46.773Z,97483.42
2022-09-23T12:49:29.080Z,97478.70
2022-09-23T12:52:16.368Z,97476.41
2022-09-23T12:54:48.997Z,97474.27
2022-09-23T12:57:34.419Z,97471.65
2022-09-23T13:00:13.333Z,97469.08
2022-09-23T13:02:46.526Z,97465.58
2022-09-23T13:05:40.254Z,97465.92
2022-09-23T13:08:27.301Z,97472.04
2022-09-23T13:11:01.931Z,97471.96
2022-09-23T13:13:39.966Z,97474.30
2022-09-23T13:16:25.067Z,97479.30
2022-09-23T13:18:54.312Z,97481.23
2022-09-23T13:21:43.279Z,97476.39
2022-09-23T13:24:20.198Z,97474.13
2022-09-23T13:26:54.417Z,97474.13
2022-09-23T13:29:32.916Z,97474.95
2022-09-23T13:32:03.195Z,97474.80
2022-09-23T13:34:34.288Z,97478.77
2022-09-23T13:37:22.160Z,97481.30
2022-09-23T13:39:50.560Z,97484.20
2022-09-23T13:42:26.708Z,97496.17
2022-09-23T13:44:59.944Z,97497.65
2022-09-23T13:47:30.498Z,97492.73
2022-09-23T13:49:57.904Z,97493.79
2022-09-23T13:52:29.574Z,97494.63
2022-09-23T13:54:58.798Z,97496.87
2022-09-23T13:57:28.972Z,97503.48
2022-09-23T14:00:14.961Z,97499.63
2022-09-23T14:02:48.422Z,97501.23
2022-09-23T14:05:30.563Z,97497.89
2022-09-23T14:07:59.094Z,97494.90
2022-09-23T14:10:27.428Z,97500.30
2022-09-23T14:12:56.354Z,97499.58
2022-09-23T14:15:23.988Z,97496.50
2022-09-23T14:18:02.966Z,97495.88
2022-09-23T14:20:30.158Z,97498.15
2022-09-23T14:23:10.535Z,97501.41
2022-09-23T14:25:39.751Z,97500.67
2022-09-23T14:28:09.374Z,97497.84
2022-09-23T14:30:38.212Z,97501.79
2022-09-23T14:33:11.407Z,97504.48
2022-09-23T14:35:44.156Z,97500.33
2022-09-23T14:38:30.394Z,97499.85
2022-09-23T14:41:17.706Z,97498.89
2022-09-23T14:43:54.792Z,97499.30
2022-09-23T14:46:23.922Z,97503.27
2022-09-23T14:48:56.154Z,97500.85
2022-09-23T14:51:35.482Z,97504.34
2022-09-23T14:54:30.386Z,97504.14
2022-09-23T14:56:59.175Z,97502.35
2022-09-23T14:59:36.986Z,97499.84
2022-09-23T15:02:39.966Z,97499.63
2022-09-23T15:05:15.724Z,97496.13
2022-09-23T15:07:46.807Z,97493.01
2022-09-23T15:10:27.626Z,97483.86
2022-09-23T15:13:03.377Z,97480.31
2022-09-23T15:15:31.391Z,97473.11
2022-09-23T15:18:07.430Z,97470.00
2022-09-23T15:20:36.242Z,97470.13
2022-09-23T15:23:03.960Z,97474.21
2022-09-23T15:25:41.348Z,97481.18
2022-09-23T15:28:08.413Z,97481.48
2022-09-23T15:30:36.470Z,97477.41
2022-09-23T15:33:04.542Z,97475.11
2022-09-23T15:35:33.433Z,97477.11
2022-09-23T15:38:02.791Z,97475.67
2022-09-23T15:40:33.439Z,97474.86
2022-09-23T15:43:10.422Z,97477.48
2022-09-23T15:45:44.230Z,97477.86
2022-09-23T15:48:14.738Z,97485.74
2022-09-23T15:50:42.650Z,97488.23
2022-09-23T15:53:14.484Z,97489.70
2022-09-23T15:55:41.944Z,97491.79
2022-09-23T15:58:09.336Z,97493.70
2022-09-23T16:00:37.542Z,97499.41
2022-09-23T16:03:06.278Z,97500.31
2022-09-23T16:05:37.992Z,97501.08
2022-09-23T16:08:09.570Z,97499.95
2022-09-23T16:10:37.686Z,97505.76
2022-09-23T16:13:09.918Z,97505.40
2022-09-23T16:15:38.873Z,97506.96
2022-09-23T16:18:07.717Z,97507.16
2022-09-23T16:20:47.353Z,97506.98
2022-09-23T16:23:38.384Z,97506.94
2022-09-23T16:26:22.204Z,97508.33
2022-09-23T16:28:52.632Z,97512.23
2022-09-23T16:31:21.694Z,97515.05
2022-09-23T16:33:50.896Z,97513.25
2022-09-23T16:36:28.330Z,97515.98
2022-09-23T16:38:55.978Z,97520.46
2022-09-23T16:41:24.477Z,97517.52
2022-09-23T16:43:53.251Z,97517.23
2022-09-23T16:46:22.115Z,97519.00
2022-09-23T16:48:52.850Z,97517.42
2022-09-23T16:51:23.509Z,97519.42
2022-09-23T16:53:53.723Z,97519.30
2022-09-23T16:56:28.439Z,97519.70
2022-09-23T16:58:56.757Z,97523.73
2022-09-23T17:01:46.178Z,97525.38
2022-09-23T17:04:18.493Z,97528.39
2022-09-23T17:06:49.546Z,97532.29
2022-09-23T17:09:29.779Z,97530.64
2022-09-23T17:12:09.196Z,97528.59
2022-09-23T17:14:36.452Z,97535.00
2022-09-23T17:17:04.179Z,97529.51
2022-09-23T17:19:33.481Z,97531.00
2022-09-23T17:22:00.796Z,97533.90
2022-09-23T17:24:28.017Z,97533.95
2022-09-23T17:26:55.171Z,97534.02
2022-09-23T17:29:22.348Z,97539.80
2022-09-23T17:31:49.653Z,97537.23
2022-09-23T17:34:18.793Z,97536.59
2022-09-23T17:36:46.124Z,97538.19
2022-09-23T17:39:13.551Z,97540.52
2022-09-23T17:41:40.625Z,97542.59
2022-09-23T17:44:13.323Z,97537.48
2022-09-23T17:46:48.970Z,97538.05
2022-09-23T17:49:25.749Z,97540.48
2022-09-23T17:51:58.752Z,97544.22
2022-09-23T17:54:28.635Z,97543.79
2022-09-23T17:56:56.088Z,97547.25
2022-09-23T17:59:23.236Z,97544.45
2022-09-23T18:01:50.621Z,97543.77
2022-09-23T18:04:18.046Z,97547.54
2022-09-23T18:06:45.185Z,97541.13
2022-09-23T18:09:13.051Z,97544.00
2022-09-23T18:11:44.318Z,97545.80
2022-09-23T18:14:18.088Z,97549.61
2022-09-23T18:16:48.307Z,97550.29
2022-09-23T18:19:16.817Z,97553.46
2022-09-23T18:21:49.188Z,97555.82
2022-09-23T18:24:33.788Z,97557.00
2022-09-23T18:27:02.604Z,97558.66
2022-09-23T18:29:29.891Z,97558.73
2022-09-23T18:31:58.407Z,97555.59
2022-09-23T18:34:25.540Z,97549.52
2022-09-23T18:36:55.537Z,97547.91
2022-09-23T18:39:22.652Z,97548.41
2022-09-23T18:41:49.836Z,97550.10
2022-09-23T18:44:17.349Z,97551.38
2022-09-23T18:46:44.541Z,97547.69
2022-09-23T18:49:30.057Z,97550.96
2022-09-23T18:51:58.306Z,97554.98
2022-09-23T18:54:28.282Z,97557.79
2022-09-23T18:56:56.177Z,97561.75
2022-09-23T18:59:27.414Z,97564.13
2022-09-23T19:01:56.566Z,97565.95
2022-09-23T19:04:25.831Z,97565.46
2022-09-23T19:06:55.844Z,97564.37
2022-09-23T19:09:23.702Z,97569.79
2022-09-23T19:11:52.095Z,97569.80
2022-09-23T19:14:20.369Z,97572.60
2022-09-23T19:16:48.769Z,97568.86
2022-09-23T19:19:16.297Z,97569.31
2022-09-23T19:21:43.758Z,97569.02
2022-09-23T19:24:15.143Z,97570.77
2022-09-23T19:26:43.377Z,97567.82
2022-09-23T19:29:16.310Z,97569.92
2022-09-23T19:31:44.014Z,97571.27
2022-09-23T19:34:14.141Z,97572.84
2022-09-23T19:36:44.087Z,97571.64
2022-09-23T19:39:20.488Z,97572.37
2022-09-23T19:41:48.577Z,97569.73
2022-09-23T19:44:16.337Z,97568.95
2022-09-23T19:46:45.121Z,97565.95
2022-09-23T19:49:12.898Z,97567.98
2022-09-23T19:51:40.379Z,97570.14
2022-09-23T19:54:08.690Z,97573.01
2022-09-23T19:56:36.106Z,97572.89
2022-09-23T19:59:06.384Z,97574.05
2022-09-23T20:01:34.037Z,97572.94
2022-09-23T20:04:01.848Z,97575.79
2022-09-23T20:06:30.827Z,97579.98
2022-09-23T20:09:00.369Z,97582.79
2022-09-23T20:11:28.906Z,97582.05
2022-09-23T20:14:00.577Z,97580.23
2022-09-23T20:16:33.332Z,97581.86
2022-09-23T20:19:01.391Z,97582.41
2022-09-23T20:21:29.743Z,97584.64
2022-09-23T20:23:57.583Z,97584.55
2022-09-23T20:26:43.779Z,97588.21
2022-09-23T20:29:11.648Z,97588.98
2022-09-23T20:31:41.081Z,97589.75
2022-09-23T20:34:10.013Z,97593.30
2022-09-23T20:36:38.790Z,97590.30
2022-09-23T20:39:06.098Z,97588.25
2022-09-23T20:41:37.092Z,97586.88
2022-09-23T20:44:07.719Z,97590.50
2022-09-23T20:46:35.443Z,97585.87
2022-09-23T20:49:03.713Z,97589.77
2022-09-23T20:51:34.627Z,97590.40
2022-09-23T20:54:02.595Z,97591.08
2022-09-23T20:56:29.747Z,97593.33
2022-09-23T20:59:01.197Z,97598.14
2022-09-23T21:01:29.178Z,97596.13
2022-09-23T21:03:56.510Z,97589.86
2022-09-23T21:06:26.592Z,97593.00
2022-09-23T21:08:54.635Z,97591.02
2022-09-23T21:11:22.164Z,97597.75
2022-09-23T21:13:51.137Z,97600.19
2022-09-23T21:16:22.114Z,97599.40
2022-09-23T21:18:51.166Z,97600.12
2022-09-23T21:21:21.530Z,97600.04
2022-09-23T21:23:49.304Z,97600.35
2022-09-23T21:26:18.763Z,97599.34
2022-09-23T21:28:48.506Z,97598.17
2022-09-23T21:31:25.040Z,97599.10
2022-09-23T21:33:54.675Z,97600.23
2022-09-23T21:36:24.168Z,97599.46
2022-09-23T21:38:52.460Z,97599.57
2022-09-23T21:41:19.822Z,97601.39
2022-09-23T21:43:49.327Z,97599.16
2022-09-23T21:46:22.329Z,97601.41
2022-09-23T21:48:54.781Z,97602.59
2022-09-23T21:51:25.659Z,97603.75
2022-09-23T21:53:55.423Z,97604.34
2022-09-23T21:56:28.007Z,97598.52
2022-09-23T21:58:57.822Z,97595.58
2022-09-23T22:01:27.638Z,97592.51
2022-09-23T22:03:57.951Z,97591.18
2022-09-23T22:06:28.278Z,97593.16
2022-09-23T22:08:59.393Z,97588.77
2022-09-23T22:11:50.931Z,97591.53
2022-09-23T22:14:20.874Z,97586.64
2022-09-23T22:16:48.203Z,97587.58
2022-09-23T22:19:16.290Z,97585.01
2022-09-23T22:21:45.457Z,97583.70
2022-09-23T22:24:12.987Z,97579.18
2022-09-23T22:26:42.768Z,97583.77
2022-09-23T22:29:31.514Z,97579.92
2022-09-23T22:32:20.579Z,97576.05
2022-09-23T22:34:51.007Z,97574.73
2022-09-23T22:37:29.959Z,97579.48
2022-09-23T22:39:57.507Z,97578.58
2022-09-23T22:42:25.848Z,97579.31
2022-09-23T22:44:55.186Z,97580.27
2022-09-23T22:47:22.611Z,97579.65
2022-09-23T22:49:55.029Z,97583.69
2022-09-23T22:52:24.125Z,97585.33
2022-09-23T22:54:52.563Z,97591.30
2022-09-23T22:57:20.995Z,97588.77
2022-09-23T22:59:49.317Z,97589.56
2022-09-23T23:02:19.126Z,97590.12
2022-09-23T23:04:47.829Z,97589.46
2022-09-23T23:07:21.831Z,97595.09
2022-09-23T23:09:51.517Z,97595.84
2022-09-23T23:12:20.649Z,97599.03
2022-09-23T23:14:49.355Z,97602.59
2022-09-23T23:17:18.431Z,97604.62
2022-09-23T23:19:47.044Z,97604.70
2022-09-23T23:22:16.099Z,97606.34
2022-09-23T23:24:43.898Z,97607.13
2022-09-23T23:27:12.373Z,97609.95
2022-09-23T23:29:40.516Z,97606.81
2022-09-23T23:32:10.019Z,97604.00
2022-09-23T23:34:38.955Z,97604.44
2022-09-23T23:37:07.711Z,97601.79
2022-09-23T23:39:36.210Z,97603.80
2022-09-23T23:42:04.686Z,97601.50
2022-09-23T23:44:34.287Z,97598.66
2022-09-23T23:47:03.255Z,97598.40
2022-09-23T23:49:31.343Z,97594.14
2022-09-23T23:51:59.212Z,97596.92
2022-09-23T23:54:27.155Z,97595.52
2022-09-23T23:56:56.269Z,97596.39
2022-09-23T23:59:25.870Z,97596.27
